Richmond's Hourly Summary for Monday, April 17, 2017
Hour Temp
(f)
RH
(%)
Solar Rad.
(MJ/m2)
Rainfall
(in)
Wind
(mph)
4/17/2017 12:00 AM 69 95 0 0 2.67
4/17/2017 1:00 AM 69 97 0 0 2.24
4/17/2017 2:00 AM 68 98 0 0 0.67
4/17/2017 3:00 AM 67 98 0 0 0
4/17/2017 4:00 AM 66 98 0 0 0
4/17/2017 5:00 AM 65 99 0 0 0
4/17/2017 6:00 AM 66 99 0 0 0.09
4/17/2017 7:00 AM 68 99 0 0 2.49
4/17/2017 8:00 AM 68 99 0.23 0 2.23
4/17/2017 9:00 AM 71 94 0.57 0 1.72
4/17/2017 10:00 AM 74 78 1.36 0 4.91
4/17/2017 11:00 AM 78 63 2.31 0 6.37
4/17/2017 12:00 PM 80 61 2.85 0 7.34
4/17/2017 1:00 PM 81 60 2.73 0 7.9
4/17/2017 2:00 PM 81 59 1.97 0 8.9
4/17/2017 3:00 PM 81 60 1.71 0 8.72
4/17/2017 4:00 PM 80 61 0.88 0 7.6
4/17/2017 5:00 PM 76 64 0.31 0 7.27
4/17/2017 6:00 PM 68 82 0.07 0.05 3.68
4/17/2017 7:00 PM 67 94 0.14 0.01 3.33
4/17/2017 8:00 PM 67 96 0.08 0 3.64
4/17/2017 9:00 PM 67 96 0 0 2
4/17/2017 10:00 PM 68 97 0 0 1.13
4/17/2017 11:00 PM 68 97 0 0.01 2.87
Data Summary 71 85 15.21 0.07 3.66